Time;durP1;ratioP1;P1;durP2;ratioP2;P2;SDS_P1;SDS_P2;PMS_P1;PMS_P2;Temp;Humidity;BMP_temperature;BMP_pressure;BME280_temperature;BME280_humidity;BME280_pressure;Samples;Min_cycle;Max_cycle;Signal;HPM_P1;HPM_P2
2022/07/07 00:01:49;;;;;;;15.05;10.02;;;15.40;99.90;;;;;;5018253;28;20053;-76
2022/07/07 00:04:18;;;;;;;11.82;9.00;;;15.40;99.90;;;;;;5009325;28;20049;-75
2022/07/07 00:06:44;;;;;;;13.45;8.98;;;15.40;99.90;;;;;;5003587;28;20103;-76
2022/07/07 00:09:10;;;;;;;12.70;9.57;;;15.40;99.90;;;;;;5015902;28;20497;-74
2022/07/07 00:11:36;;;;;;;14.93;9.50;;;15.40;99.90;;;;;;5008900;28;20038;-74
2022/07/07 00:14:02;;;;;;;16.83;9.80;;;15.40;99.90;;;;;;5017640;28;20041;-74
2022/07/07 00:16:28;;;;;;;15.73;9.98;;;15.50;99.90;;;;;;5002506;28;20033;-73
2022/07/07 00:18:55;;;;;;;14.43;10.88;;;15.50;99.90;;;;;;5011148;28;20041;-73
2022/07/07 00:21:21;;;;;;;17.70;11.20;;;15.50;99.90;;;;;;5039322;28;20044;-74
2022/07/07 00:23:46;;;;;;;17.77;10.90;;;15.50;99.90;;;;;;5049603;28;20127;-73
2022/07/07 00:26:12;;;;;;;17.77;10.52;;;15.50;99.90;;;;;;5023240;28;20129;-74
2022/07/07 00:28:38;;;;;;;17.88;10.88;;;15.50;99.90;;;;;;5012195;28;20119;-73
2022/07/07 00:31:03;;;;;;;15.05;11.35;;;15.50;99.90;;;;;;5010761;28;20557;-72
2022/07/07 00:33:29;;;;;;;20.48;12.30;;;15.50;99.90;;;;;;5014060;28;20037;-73
2022/07/07 00:35:55;;;;;;;17.15;12.35;;;15.60;99.90;;;;;;4979620;28;20092;-72
2022/07/07 00:38:20;;;;;;;16.58;11.38;;;15.60;99.90;;;;;;5015665;28;20121;-73
2022/07/07 00:40:51;;;;;;;17.95;12.43;;;15.60;99.90;;;;;;4992506;28;20065;-73
2022/07/07 00:43:17;;;;;;;19.70;12.52;;;15.60;99.90;;;;;;5022484;28;20034;-73
2022/07/07 00:45:47;;;;;;;17.55;11.63;;;15.60;99.90;;;;;;5003563;28;20470;-73
2022/07/07 00:48:14;;;;;;;18.83;12.77;;;15.60;99.90;;;;;;5017402;28;20037;-73
2022/07/07 00:50:43;;;;;;;21.08;13.43;;;15.60;99.90;;;;;;5016886;28;20422;-74
2022/07/07 00:53:09;;;;;;;27.50;13.60;;;15.70;99.90;;;;;;5026532;28;20041;-74
2022/07/07 00:55:35;;;;;;;19.52;12.48;;;15.70;99.90;;;;;;4996022;28;20384;-74
2022/07/07 00:58:00;;;;;;;20.42;13.30;;;15.70;99.90;;;;;;5015728;28;20033;-73
2022/07/07 01:00:26;;;;;;;20.27;13.23;;;15.70;99.90;;;;;;5010476;28;20064;-73
2022/07/07 01:02:52;;;;;;;17.75;12.75;;;15.70;99.90;;;;;;5006799;28;20049;-74
2022/07/07 01:05:18;;;;;;;20.10;12.80;;;15.70;99.90;;;;;;5034910;28;20137;-73
2022/07/07 01:07:46;;;;;;;21.15;12.27;;;15.70;99.90;;;;;;5015580;28;20515;-75
2022/07/07 01:10:11;;;;;;;18.75;13.35;;;15.70;99.90;;;;;;5045379;28;20526;-75
2022/07/07 01:12:39;;;;;;;20.85;13.43;;;15.80;99.90;;;;;;5008535;28;20046;-75
2022/07/07 01:15:08;;;;;;;23.13;13.25;;;15.80;99.90;;;;;;5022469;28;20046;-75
2022/07/07 01:17:34;;;;;;;19.75;13.00;;;15.80;99.90;;;;;;5020135;28;20037;-75
2022/07/07 01:20:02;;;;;;;22.92;13.15;;;15.80;99.90;;;;;;5017437;28;20526;-75
2022/07/07 01:22:31;;;;;;;21.92;12.93;;;15.80;99.90;;;;;;5015685;28;20040;-75
2022/07/07 01:24:58;;;;;;;20.58;13.02;;;15.80;99.90;;;;;;5027392;28;20053;-75
2022/07/07 01:27:24;;;;;;;20.70;13.48;;;15.90;99.90;;;;;;5015113;28;20167;-75
2022/07/07 01:29:54;;;;;;;17.50;13.13;;;15.70;99.90;;;;;;4998181;28;20069;-75
2022/07/07 01:32:25;;;;;;;22.25;13.57;;;15.80;99.90;;;;;;5044488;28;20045;-75
2022/07/07 01:34:51;;;;;;;17.38;12.77;;;15.90;99.90;;;;;;5022951;28;20053;-75
2022/07/07 01:37:20;;;;;;;18.25;12.32;;;15.80;99.90;;;;;;5024091;28;20029;-75
2022/07/07 01:39:48;;;;;;;19.10;12.85;;;15.90;99.90;;;;;;5036538;28;20502;-76
2022/07/07 01:42:13;;;;;;;26.85;13.23;;;15.90;99.90;;;;;;5009072;28;20065;-75
2022/07/07 01:44:41;;;;;;;21.40;13.38;;;15.90;99.90;;;;;;5019877;28;20038;-75
2022/07/07 01:47:09;;;;;;;23.25;13.32;;;15.90;99.90;;;;;;5014514;28;20403;-75
2022/07/07 01:49:36;;;;;;;20.52;14.75;;;15.90;99.90;;;;;;5032894;28;20451;-75
2022/07/07 01:52:03;;;;;;;19.15;14.05;;;15.90;99.90;;;;;;5024154;28;20444;-75
2022/07/07 01:54:30;;;;;;;22.92;14.40;;;15.90;99.90;;;;;;5046019;28;20030;-75
2022/07/07 01:56:57;;;;;;;23.17;13.75;;;15.90;99.90;;;;;;5035466;28;20045;-76
2022/07/07 01:59:23;;;;;;;21.38;14.13;;;15.90;99.90;;;;;;5030699;28;20124;-75
2022/07/07 02:01:48;;;;;;;17.65;12.30;;;15.90;99.90;;;;;;5038371;28;20122;-74
2022/07/07 02:04:14;;;;;;;15.85;11.27;;;15.90;99.90;;;;;;5001613;28;20038;-75
2022/07/07 02:06:40;;;;;;;15.80;9.95;;;15.90;99.90;;;;;;4998843;28;20103;-75
2022/07/07 02:09:07;;;;;;;13.80;9.38;;;15.90;99.90;;;;;;5023578;28;20069;-75
2022/07/07 02:11:33;;;;;;;14.13;9.40;;;15.80;99.90;;;;;;5006913;28;20509;-75
2022/07/07 02:13:59;;;;;;;11.00;7.05;;;15.90;99.90;;;;;;5000392;28;20091;-75
2022/07/07 02:16:25;;;;;;;11.75;7.53;;;15.80;99.90;;;;;;5010160;28;20033;-74
2022/07/07 02:18:57;;;;;;;10.90;8.23;;;15.80;99.90;;;;;;5012188;28;20508;-74
2022/07/07 02:21:23;;;;;;;11.13;7.85;;;15.80;99.90;;;;;;5027757;28;20107;-74
2022/07/07 02:23:52;;;;;;;11.40;7.35;;;15.80;99.90;;;;;;5014737;28;20044;-75
2022/07/07 02:26:18;;;;;;;12.30;7.40;;;15.80;99.90;;;;;;5011159;28;20559;-74
2022/07/07 02:28:44;;;;;;;9.98;6.43;;;15.80;99.90;;;;;;5028354;28;20128;-73
2022/07/07 02:31:10;;;;;;;9.88;6.32;;;15.70;99.90;;;;;;5031736;28;20124;-74
2022/07/07 02:33:36;;;;;;;13.07;6.72;;;15.70;99.90;;;;;;5014137;28;20033;-74
2022/07/07 02:36:03;;;;;;;7.35;5.88;;;15.70;99.90;;;;;;5014621;28;20378;-75
2022/07/07 02:38:29;;;;;;;7.90;5.60;;;15.60;99.90;;;;;;5013263;28;20126;-74
2022/07/07 02:40:56;;;;;;;10.40;5.68;;;15.60;99.90;;;;;;5027928;28;20080;-74
2022/07/07 02:43:22;;;;;;;8.70;5.78;;;15.60;99.90;;;;;;5012876;28;20312;-74
2022/07/07 02:45:50;;;;;;;8.32;5.32;;;15.60;99.90;;;;;;5029600;28;20033;-74
2022/07/07 02:48:18;;;;;;;5.50;4.45;;;15.60;99.90;;;;;;5026848;28;20033;-74
2022/07/07 02:50:44;;;;;;;8.90;4.93;;;15.60;99.90;;;;;;5035234;28;20045;-74
2022/07/07 02:53:11;;;;;;;6.32;4.38;;;15.50;99.90;;;;;;5029388;28;20042;-74
2022/07/07 02:55:38;;;;;;;5.65;4.22;;;15.50;99.90;;;;;;5042104;28;20112;-74
2022/07/07 02:58:05;;;;;;;9.02;4.78;;;15.50;99.90;;;;;;5009976;28;20037;-74
2022/07/07 03:00:34;;;;;;;6.93;4.43;;;15.50;99.90;;;;;;5039255;28;20034;-74
2022/07/07 03:03:02;;;;;;;10.20;4.55;;;15.50;99.90;;;;;;5040418;28;20407;-74
2022/07/07 03:05:28;;;;;;;7.95;4.20;;;15.50;99.90;;;;;;5013587;28;20071;-74
2022/07/07 03:07:54;;;;;;;6.20;3.75;;;15.50;99.90;;;;;;5002966;28;20128;-74
2022/07/07 03:10:20;;;;;;;5.22;4.30;;;15.50;99.90;;;;;;5037868;28;20037;-74
2022/07/07 03:12:47;;;;;;;8.25;4.13;;;15.40;99.90;;;;;;5025206;28;20037;-74
2022/07/07 03:15:13;;;;;;;6.22;4.72;;;15.40;99.90;;;;;;5036134;28;20057;-74
2022/07/07 03:17:44;;;;;;;8.68;4.82;;;15.40;99.90;;;;;;5026878;28;20045;-74
2022/07/07 03:20:11;;;;;;;8.60;4.80;;;15.40;99.90;;;;;;5027482;28;20507;-74
2022/07/07 03:22:40;;;;;;;6.47;4.70;;;15.50;99.90;;;;;;5026471;28;20030;-74
2022/07/07 03:25:07;;;;;;;8.15;4.30;;;15.50;99.90;;;;;;5029886;28;20130;-74
2022/07/07 03:27:33;;;;;;;10.05;4.97;;;15.50;99.90;;;;;;5010561;28;20041;-75
2022/07/07 03:29:59;;;;;;;9.48;5.57;;;15.50;99.90;;;;;;5028479;28;20041;-73
2022/07/07 03:32:25;;;;;;;9.02;4.75;;;15.50;99.90;;;;;;5004692;28;20037;-75
2022/07/07 03:34:51;;;;;;;7.07;5.78;;;15.50;99.90;;;;;;5041617;28;20401;-75
2022/07/07 03:37:17;;;;;;;6.03;4.30;;;15.50;99.90;;;;;;5043894;28;20034;-74
2022/07/07 03:39:43;;;;;;;8.95;5.03;;;15.50;99.90;;;;;;5028124;28;20037;-74
2022/07/07 03:42:09;;;;;;;9.80;4.70;;;15.50;99.90;;;;;;5028260;28;20103;-74
2022/07/07 03:44:35;;;;;;;8.82;4.35;;;15.50;99.90;;;;;;4996830;28;20041;-74
2022/07/07 03:47:00;;;;;;;7.28;4.38;;;15.50;99.90;;;;;;5028843;28;20045;-75
2022/07/07 03:49:26;;;;;;;8.63;3.95;;;15.50;99.90;;;;;;5029797;28;20128;-74
2022/07/07 03:51:52;;;;;;;8.60;4.30;;;15.50;99.90;;;;;;5028391;28;20034;-75
2022/07/07 03:54:18;;;;;;;6.05;3.70;;;15.50;99.90;;;;;;5013237;28;20033;-74
2022/07/07 03:56:43;;;;;;;7.57;4.15;;;15.50;99.90;;;;;;4996998;28;20068;-74
2022/07/07 03:59:09;;;;;;;6.53;4.10;;;15.40;99.90;;;;;;5024936;28;20518;-74
2022/07/07 04:01:36;;;;;;;13.45;4.15;;;15.40;99.90;;;;;;5026551;28;20041;-74
2022/07/07 04:04:04;;;;;;;13.25;3.83;;;15.40;99.90;;;;;;5027205;28;20048;-74
2022/07/07 04:06:31;;;;;;;9.38;4.30;;;15.40;99.90;;;;;;5029034;28;20045;-74
2022/07/07 04:08:57;;;;;;;12.35;4.72;;;15.40;99.90;;;;;;5003817;28;20052;-74
2022/07/07 04:11:23;;;;;;;8.98;3.75;;;15.40;99.90;;;;;;5037076;28;20037;-74
2022/07/07 04:13:48;;;;;;;9.48;4.13;;;15.40;99.90;;;;;;5029802;28;20033;-74
2022/07/07 04:16:14;;;;;;;10.07;4.05;;;15.40;99.90;;;;;;4996521;28;20086;-74
2022/07/07 04:18:40;;;;;;;11.50;4.50;;;15.40;99.90;;;;;;5007114;28;20501;-74
2022/07/07 04:21:06;;;;;;;11.82;4.40;;;15.40;99.90;;;;;;5017301;28;20034;-74
2022/07/07 04:23:31;;;;;;;10.80;4.68;;;15.40;99.90;;;;;;5011351;28;20565;-74
2022/07/07 04:25:57;;;;;;;10.88;4.53;;;15.40;99.90;;;;;;4983420;28;20037;-75
2022/07/07 04:28:23;;;;;;;8.70;4.70;;;15.40;99.90;;;;;;5031700;28;20056;-74
2022/07/07 04:30:51;;;;;;;11.98;3.97;;;15.40;99.90;;;;;;5029604;28;20091;-74
2022/07/07 04:33:17;;;;;;;4.70;2.45;;;15.40;99.90;;;;;;5013735;28;20107;-74
2022/07/07 04:35:43;;;;;;;4.38;2.50;;;15.30;99.90;;;;;;5016638;28;20527;-74
2022/07/07 04:38:08;;;;;;;3.53;1.88;;;15.30;99.90;;;;;;4999028;28;20104;-74
2022/07/07 04:40:59;;;;;;;4.90;2.42;;;15.20;99.90;;;;;;5030646;28;20044;-74
2022/07/07 04:43:26;;;;;;;5.50;2.28;;;15.20;99.90;;;;;;5031003;28;20091;-74
2022/07/07 04:45:52;;;;;;;5.03;2.20;;;15.20;99.90;;;;;;5031517;28;20156;-74
2022/07/07 04:48:18;;;;;;;7.57;2.22;;;15.20;99.90;;;;;;5029936;28;20483;-74
2022/07/07 04:50:43;;;;;;;7.72;1.98;;;15.20;99.90;;;;;;5032519;28;20052;-74
2022/07/07 04:53:09;;;;;;;6.03;1.80;;;15.10;99.90;;;;;;5029157;28;20044;-74
2022/07/07 04:55:35;;;;;;;5.78;1.90;;;15.10;99.90;;;;;;5015104;28;20040;-74
2022/07/07 04:58:00;;;;;;;6.63;2.22;;;15.00;99.90;;;;;;5012389;28;20380;-74
2022/07/07 05:00:26;;;;;;;5.65;2.28;;;15.00;99.90;;;;;;5013496;28;20029;-75
2022/07/07 05:02:52;;;;;;;7.80;2.17;;;14.90;99.90;;;;;;5030975;28;20542;-74
2022/07/07 05:05:18;;;;;;;6.07;2.13;;;14.90;99.90;;;;;;5014132;28;20060;-75
2022/07/07 05:07:43;;;;;;;8.93;2.20;;;14.90;99.90;;;;;;5012645;28;20050;-74
2022/07/07 05:10:10;;;;;;;5.43;2.00;;;14.90;99.90;;;;;;5031749;28;20037;-75
2022/07/07 05:12:36;;;;;;;5.93;2.10;;;14.90;99.90;;;;;;5015585;28;20038;-74
2022/07/07 05:15:02;;;;;;;10.73;2.38;;;14.90;99.90;;;;;;5030401;28;20041;-75
2022/07/07 05:17:28;;;;;;;10.43;2.47;;;14.90;99.90;;;;;;5024085;28;20498;-74
2022/07/07 05:19:53;;;;;;;9.38;2.33;;;14.90;99.90;;;;;;5011561;28;20099;-73
2022/07/07 05:22:19;;;;;;;10.32;2.90;;;14.90;99.90;;;;;;5009566;28;20491;-75
2022/07/07 05:24:45;;;;;;;9.13;2.33;;;14.90;99.90;;;;;;5022243;28;20052;-74
2022/07/07 05:27:10;;;;;;;12.63;2.40;;;14.90;99.90;;;;;;5042927;28;20038;-74
2022/07/07 05:29:43;;;;;;;10.48;2.40;;;14.90;99.90;;;;;;5011411;28;20037;-74
2022/07/07 05:32:08;;;;;;;10.50;2.47;;;15.00;99.90;;;;;;5028474;28;20087;-73
2022/07/07 05:34:34;;;;;;;9.02;2.72;;;15.00;99.90;;;;;;5041881;28;20450;-75
2022/07/07 05:37:00;;;;;;;7.75;2.30;;;15.00;99.90;;;;;;5027613;28;20071;-74
2022/07/07 05:39:26;;;;;;;7.60;2.33;;;15.00;99.90;;;;;;5041978;28;20072;-73
2022/07/07 05:41:51;;;;;;;6.03;2.25;;;15.00;99.90;;;;;;5022065;28;20080;-74
2022/07/07 05:44:17;;;;;;;6.30;2.70;;;15.00;99.90;;;;;;5037384;28;20300;-74
2022/07/07 05:46:43;;;;;;;10.10;2.60;;;15.00;99.90;;;;;;5038840;28;20034;-74
2022/07/07 05:49:08;;;;;;;7.25;2.17;;;14.90;99.90;;;;;;5006128;28;20060;-74
2022/07/07 05:51:34;;;;;;;6.63;2.20;;;14.80;99.90;;;;;;5008598;28;20096;-74
2022/07/07 05:54:00;;;;;;;9.15;2.15;;;14.80;99.90;;;;;;5015396;28;20042;-74
2022/07/07 05:56:26;;;;;;;7.65;2.45;;;14.80;99.90;;;;;;5000576;28;20120;-75
2022/07/07 05:58:51;;;;;;;10.50;2.70;;;14.80;99.90;;;;;;5035385;28;20095;-75
2022/07/07 06:01:17;;;;;;;12.40;2.38;;;14.80;99.90;;;;;;4987227;28;20037;-75
2022/07/07 06:03:43;;;;;;;8.30;2.42;;;14.80;99.90;;;;;;5014569;28;20053;-74
2022/07/07 06:06:08;;;;;;;8.50;2.40;;;14.90;99.90;;;;;;5015851;28;20055;-75
2022/07/07 06:08:34;;;;;;;11.00;2.47;;;14.80;99.90;;;;;;5002633;28;20450;-75
2022/07/07 06:11:00;;;;;;;8.63;2.45;;;14.90;99.90;;;;;;5027152;28;20506;-76
2022/07/07 06:13:25;;;;;;;9.98;2.70;;;14.90;99.90;;;;;;5033126;28;20037;-75
2022/07/07 06:15:51;;;;;;;8.02;2.25;;;15.00;99.90;;;;;;4997505;28;20474;-75
2022/07/07 06:18:17;;;;;;;9.07;2.60;;;15.00;99.90;;;;;;5030078;28;20046;-75
2022/07/07 06:20:43;;;;;;;7.60;2.47;;;15.00;99.90;;;;;;5016032;28;20034;-75
2022/07/07 06:23:09;;;;;;;6.50;2.38;;;15.00;99.90;;;;;;5031792;28;20041;-75
2022/07/07 06:25:35;;;;;;;7.97;2.50;;;15.00;99.90;;;;;;5003470;28;20068;-76
2022/07/07 06:28:01;;;;;;;9.27;2.75;;;15.00;99.90;;;;;;5009793;28;20420;-75
2022/07/07 06:30:27;;;;;;;9.65;2.42;;;15.10;99.90;;;;;;5037023;28;20168;-74
2022/07/07 06:32:53;;;;;;;11.13;3.10;;;15.10;99.90;;;;;;5012315;28;20128;-75
2022/07/07 06:35:21;;;;;;;9.18;3.10;;;15.10;99.90;;;;;;5028307;28;20056;-75
2022/07/07 06:37:48;;;;;;;8.02;2.28;;;15.10;99.90;;;;;;5027185;28;20030;-75
2022/07/07 06:40:13;;;;;;;7.15;2.20;;;15.10;99.90;;;;;;5012616;28;20044;-75
2022/07/07 06:42:39;;;;;;;9.05;2.40;;;15.10;99.90;;;;;;5014514;28;20537;-76
2022/07/07 06:45:06;;;;;;;10.70;2.50;;;15.10;99.90;;;;;;5013796;28;20471;-75
2022/07/07 06:47:32;;;;;;;9.13;2.10;;;15.10;99.90;;;;;;5011218;28;20112;-75
2022/07/07 06:49:58;;;;;;;9.50;2.58;;;15.20;99.90;;;;;;5020013;28;20038;-75
2022/07/07 06:52:24;;;;;;;6.97;2.90;;;15.20;99.90;;;;;;5019811;28;20108;-76
2022/07/07 06:54:49;;;;;;;12.90;2.70;;;15.30;99.90;;;;;;5031011;28;20042;-75
2022/07/07 06:57:15;;;;;;;14.98;3.05;;;15.30;99.90;;;;;;5024916;28;20033;-75
2022/07/07 06:59:41;;;;;;;7.18;2.40;;;15.40;99.90;;;;;;5007549;28;20492;-76
2022/07/07 07:02:07;;;;;;;13.75;2.25;;;15.40;99.90;;;;;;5026777;28;20045;-75
2022/07/07 07:04:33;;;;;;;11.73;2.92;;;15.50;99.90;;;;;;5008865;28;20034;-75
2022/07/07 07:06:59;;;;;;;9.52;2.60;;;15.50;99.90;;;;;;5002924;28;20034;-75
2022/07/07 07:09:24;;;;;;;5.15;2.05;;;15.60;99.90;;;;;;5007801;28;20509;-74
2022/07/07 07:11:50;;;;;;;7.22;2.40;;;15.70;99.90;;;;;;5026351;28;20426;-74
2022/07/07 07:14:16;;;;;;;11.57;2.58;;;15.90;99.90;;;;;;5029672;28;20080;-75
2022/07/07 07:16:42;;;;;;;6.93;2.20;;;15.90;99.90;;;;;;5010799;28;20038;-75
2022/07/07 07:19:08;;;;;;;11.63;3.40;;;16.00;99.90;;;;;;5010134;28;20042;-75
2022/07/07 07:21:33;;;;;;;5.47;2.13;;;15.90;99.90;;;;;;5019751;28;20120;-75
2022/07/07 07:23:59;;;;;;;10.13;2.30;;;15.80;99.90;;;;;;5007436;28;20060;-75
2022/07/07 07:26:25;;;;;;;9.05;2.30;;;15.70;99.90;;;;;;4996952;28;20044;-75
2022/07/07 07:28:53;;;;;;;10.57;2.65;;;15.80;99.90;;;;;;5013252;28;20049;-75
2022/07/07 07:31:19;;;;;;;8.82;2.33;;;15.90;99.90;;;;;;5012448;28;20041;-75
2022/07/07 07:33:47;;;;;;;5.60;1.80;;;16.00;99.90;;;;;;5014351;28;20030;-74
2022/07/07 07:36:13;;;;;;;6.30;2.20;;;16.10;99.90;;;;;;5001923;28;20174;-75
2022/07/07 07:38:39;;;;;;;6.30;2.45;;;16.30;99.90;;;;;;5022628;28;20491;-76
2022/07/07 07:41:11;;;;;;;7.55;2.03;;;16.40;99.90;;;;;;5010489;28;20058;-76
2022/07/07 07:43:37;;;;;;;9.30;2.30;;;16.30;99.90;;;;;;5029348;28;20398;-76
2022/07/07 07:46:03;;;;;;;8.02;1.70;;;16.30;99.90;;;;;;5030089;28;20033;-76
2022/07/07 07:48:29;;;;;;;9.27;2.15;;;16.20;99.90;;;;;;5040437;28;20174;-76
2022/07/07 07:50:55;;;;;;;6.45;1.38;;;16.20;99.90;;;;;;5013694;28;20487;-76
2022/07/07 07:53:21;;;;;;;4.68;1.70;;;16.10;99.90;;;;;;5013679;28;20510;-76
2022/07/07 07:55:47;;;;;;;9.88;2.05;;;16.00;99.90;;;;;;5024231;28;20274;-76
2022/07/07 07:58:12;;;;;;;4.38;1.40;;;15.80;99.90;;;;;;5036937;28;20033;-76
2022/07/07 08:00:38;;;;;;;4.80;1.73;;;15.80;99.90;;;;;;4980062;28;20117;-76
2022/07/07 08:03:04;;;;;;;9.43;1.70;;;15.80;99.90;;;;;;5023262;28;20445;-75
2022/07/07 08:05:30;;;;;;;4.85;1.48;;;15.90;99.90;;;;;;5008566;28;20311;-75
2022/07/07 08:07:56;;;;;;;6.65;1.50;;;16.10;99.90;;;;;;5017655;28;20045;-75
2022/07/07 08:10:23;;;;;;;5.07;1.38;;;16.30;99.90;;;;;;5030828;28;20042;-76
2022/07/07 08:12:49;;;;;;;4.07;1.38;;;16.40;99.90;;;;;;5003793;28;20036;-76
2022/07/07 08:15:15;;;;;;;2.72;1.13;;;16.60;99.90;;;;;;5028862;28;20239;-75
2022/07/07 08:17:42;;;;;;;3.35;1.45;;;16.70;99.90;;;;;;5012409;28;20037;-75
2022/07/07 08:20:08;;;;;;;3.97;1.63;;;16.70;99.90;;;;;;5012273;28;20073;-75
2022/07/07 08:22:35;;;;;;;2.47;1.10;;;16.70;99.90;;;;;;5021867;28;20131;-75
2022/07/07 08:25:00;;;;;;;3.35;1.23;;;16.70;99.90;;;;;;5014009;28;20092;-75
2022/07/07 08:27:26;;;;;;;2.97;1.35;;;16.70;99.90;;;;;;4999153;28;20046;-75
2022/07/07 08:29:52;;;;;;;6.70;1.70;;;16.80;99.90;;;;;;5032953;28;20095;-75
2022/07/07 08:32:18;;;;;;;4.85;1.20;;;16.90;99.90;;;;;;5029210;28;20041;-75
2022/07/07 08:34:44;;;;;;;4.53;1.05;;;17.10;99.90;;;;;;5011208;28;20046;-76
2022/07/07 08:37:11;;;;;;;4.20;1.25;;;17.00;99.90;;;;;;5027699;28;20431;-76
2022/07/07 08:39:37;;;;;;;3.78;1.33;;;17.00;99.90;;;;;;5008165;28;20558;-75
2022/07/07 08:42:03;;;;;;;5.75;1.48;;;16.90;99.90;;;;;;5012673;28;20585;-75
2022/07/07 08:44:29;;;;;;;2.78;1.13;;;16.80;99.90;;;;;;5000765;28;20047;-75
2022/07/07 08:46:55;;;;;;;3.72;1.05;;;16.70;99.90;;;;;;5028563;28;20570;-76
2022/07/07 08:49:21;;;;;;;5.10;1.77;;;16.60;99.90;;;;;;5013021;28;20056;-75
2022/07/07 08:51:47;;;;;;;1.92;1.00;;;16.50;99.90;;;;;;5012418;28;20053;-76
2022/07/07 08:54:15;;;;;;;2.70;0.70;;;16.60;99.90;;;;;;5022425;28;20041;-75
2022/07/07 08:56:42;;;;;;;4.00;0.93;;;16.60;99.90;;;;;;5013840;28;20478;-75
2022/07/07 08:59:09;;;;;;;3.08;0.90;;;16.60;99.90;;;;;;5024696;28;20045;-75
2022/07/07 09:01:40;;;;;;;3.78;1.08;;;16.80;99.90;;;;;;5012075;28;20046;-76
2022/07/07 09:04:06;;;;;;;4.38;1.30;;;17.10;99.90;;;;;;5026618;28;20123;-76
2022/07/07 09:06:32;;;;;;;3.88;1.40;;;17.30;99.90;;;;;;5026283;28;20045;-75
2022/07/07 09:08:59;;;;;;;4.32;1.40;;;17.50;99.90;;;;;;5028056;28;20041;-76
2022/07/07 09:11:33;;;;;;;3.70;1.10;;;17.60;99.90;;;;;;5028855;28;20050;-76
2022/07/07 09:14:16;;;;;;;3.10;0.82;;;17.70;99.90;;;;;;5014744;28;20182;-76
2022/07/07 09:16:43;;;;;;;3.95;1.27;;;17.70;99.90;;;;;;5026471;28;20040;-76
2022/07/07 09:19:20;;;;;;;4.32;1.40;;;17.80;99.90;;;;;;5027479;28;20046;-76
2022/07/07 09:21:51;;;;;;;2.80;1.45;;;17.70;99.90;;;;;;5036928;28;20534;-76
2022/07/07 09:24:19;;;;;;;4.43;1.75;;;17.60;99.90;;;;;;5024308;28;20045;-75
2022/07/07 09:26:56;;;;;;;3.45;1.50;;;17.40;99.90;;;;;;5013963;28;20060;-75
2022/07/07 09:29:23;;;;;;;2.47;1.20;;;17.30;99.90;;;;;;5037296;28;20042;-77
2022/07/07 09:31:55;;;;;;;3.40;1.70;;;17.20;99.90;;;;;;5015340;28;20037;-76
2022/07/07 09:34:32;;;;;;;4.43;1.55;;;17.20;99.90;;;;;;5014434;28;20045;-76
2022/07/07 09:39:55;;;;;;;4.80;1.55;;;17.10;99.90;;;;;;5035328;28;20066;-76
2022/07/07 09:42:32;;;;;;;6.55;2.33;;;17.20;99.90;;;;;;5024959;28;20089;-76
2022/07/07 09:45:10;;;;;;;5.22;1.80;;;17.20;99.90;;;;;;5039930;28;20049;-75
2022/07/07 09:47:36;;;;;;;4.63;1.30;;;17.30;99.90;;;;;;5024156;28;20042;-77
2022/07/07 09:50:04;;;;;;;5.05;1.58;;;17.50;99.90;;;;;;5026541;28;20042;-75
2022/07/07 09:52:33;;;;;;;4.10;1.70;;;17.70;99.90;;;;;;5019672;28;20054;-76
2022/07/07 09:55:00;;;;;;;3.97;1.73;;;18.00;99.90;;;;;;5020573;28;20042;-77
2022/07/07 09:57:26;;;;;;;4.40;1.70;;;17.90;99.90;;;;;;5016032;28;20308;-77
2022/07/07 09:59:55;;;;;;;4.63;2.03;;;17.90;99.90;;;;;;5024046;28;20048;-76
2022/07/07 10:02:27;;;;;;;5.03;1.50;;;17.80;99.90;;;;;;5016369;28;20041;-75
2022/07/07 10:04:59;;;;;;;5.13;2.23;;;17.70;99.90;;;;;;5016414;28;20573;-78
2022/07/07 10:07:27;;;;;;;6.28;1.77;;;17.50;99.90;;;;;;5029681;28;20289;-77
2022/07/07 10:10:00;;;;;;;5.53;1.85;;;17.40;99.90;;;;;;5020853;28;20494;-76
2022/07/07 10:12:28;;;;;;;4.65;1.30;;;17.30;99.90;;;;;;5032655;28;20041;-74
2022/07/07 10:15:12;;;;;;;3.85;1.55;;;17.20;99.90;;;;;;5016183;28;20037;-75
2022/07/07 10:17:40;;;;;;;5.30;1.67;;;17.20;99.90;;;;;;5018236;28;20072;-75
2022/07/07 10:20:07;;;;;;;2.28;1.33;;;17.30;99.90;;;;;;5038341;28;20045;-75
2022/07/07 10:22:35;;;;;;;3.83;1.55;;;17.40;99.90;;;;;;5031686;28;20054;-76
2022/07/07 10:25:02;;;;;;;6.88;2.00;;;17.60;99.90;;;;;;5046961;28;20060;-76
2022/07/07 10:27:28;;;;;;;2.38;1.38;;;17.70;99.90;;;;;;5005129;28;20041;-76
2022/07/07 10:29:57;;;;;;;3.90;1.42;;;17.90;99.90;;;;;;5011582;28;20054;-76
2022/07/07 10:32:51;;;;;;;2.88;1.60;;;18.10;99.90;;;;;;5008426;28;20076;-76
2022/07/07 10:35:18;;;;;;;4.45;1.75;;;18.30;99.90;;;;;;5060676;28;20033;-75
2022/07/07 10:37:48;;;;;;;2.25;1.70;;;18.30;99.90;;;;;;5011708;28;20042;-76
2022/07/07 10:40:23;;;;;;;4.97;2.42;;;18.30;99.90;;;;;;5031216;28;20077;-75
2022/07/07 10:43:14;;;;;;;6.45;1.60;;;18.10;99.90;;;;;;5037993;28;20061;-73
2022/07/07 10:45:48;;;;;;;3.42;1.60;;;17.40;99.90;;;;;;5029207;28;20442;-76
2022/07/07 10:48:39;;;;;;;5.60;1.83;;;17.10;99.90;;;;;;5001420;28;20046;-76
2022/07/07 10:51:15;;;;;;;4.80;1.77;;;16.80;99.90;;;;;;5022359;28;20049;-76
2022/07/07 10:54:06;;;;;;;4.97;1.90;;;16.80;99.90;;;;;;5020096;28;20092;-76
2022/07/07 10:56:51;;;;;;;6.63;2.33;;;16.80;99.90;;;;;;5043110;28;20040;-76
2022/07/07 10:59:18;;;;;;;4.35;2.10;;;16.80;99.90;;;;;;4995731;28;20041;-76
2022/07/07 11:02:02;;;;;;;7.72;2.75;;;16.90;99.90;;;;;;5014603;28;20041;-76
2022/07/07 11:04:45;;;;;;;3.63;2.17;;;16.90;99.90;;;;;;5035607;28;20033;-76
2022/07/07 11:07:12;;;;;;;;;;;16.80;99.90;;;;;;5018271;28;20269;-77
2022/07/07 11:10:13;;;;;;;6.60;1.92;;;16.80;99.90;;;;;;5028994;28;19917;-76
2022/07/07 11:12:51;;;;;;;7.40;2.00;;;16.60;99.90;;;;;;4959760;28;20070;-76
2022/07/07 11:15:22;;;;;;;7.05;1.90;;;16.50;99.90;;;;;;5008056;28;20380;-76
2022/07/07 11:18:09;;;;;;;8.38;2.55;;;16.40;99.90;;;;;;5016190;28;20438;-76
2022/07/07 11:21:00;;;;;;;6.95;2.42;;;16.40;99.90;;;;;;5048545;28;20491;-75
2022/07/07 11:24:13;;;;;;;7.93;2.30;;;16.40;99.90;;;;;;5047188;28;20044;-75
2022/07/07 11:26:39;;;;;;;7.22;2.78;;;16.30;99.90;;;;;;5005275;28;20057;-75
2022/07/07 11:29:05;;;;;;;10.80;2.47;;;16.30;99.90;;;;;;4996273;28;20533;-75
2022/07/07 11:31:31;;;;;;;10.07;2.95;;;16.30;99.90;;;;;;5043477;28;20033;-75
2022/07/07 11:33:57;;;;;;;11.68;3.17;;;16.20;99.90;;;;;;5031484;28;20120;-75
2022/07/07 11:36:30;;;;;;;15.50;3.35;;;16.20;99.90;;;;;;5015252;28;20049;-74
2022/07/07 11:39:03;;;;;;;13.18;3.22;;;16.20;99.90;;;;;;5032422;28;20453;-75
2022/07/07 11:41:48;;;;;;;13.65;3.25;;;16.10;99.90;;;;;;5017065;28;20531;-75
2022/07/07 11:44:22;;;;;;;16.30;3.28;;;16.10;99.90;;;;;;5037122;28;20081;-74
2022/07/07 11:47:06;;;;;;;11.38;3.30;;;16.10;99.90;;;;;;5000067;28;20065;-74
2022/07/07 11:49:33;;;;;;;16.23;4.57;;;16.20;99.90;;;;;;5012263;28;20046;-74
2022/07/07 11:52:02;;;;;;;13.45;3.55;;;16.30;99.90;;;;;;5027543;28;20056;-74
2022/07/07 11:54:29;;;;;;;14.85;3.15;;;16.30;99.90;;;;;;5005816;28;20116;-75
2022/07/07 11:56:55;;;;;;;9.10;2.95;;;16.30;99.90;;;;;;5008208;28;20037;-76
2022/07/07 11:59:27;;;;;;;8.57;2.67;;;16.30;99.90;;;;;;5022020;28;20121;-76
2022/07/07 12:01:59;;;;;;;9.48;2.70;;;16.40;99.90;;;;;;5022166;28;20072;-76
2022/07/07 12:04:24;;;;;;;12.57;3.33;;;16.60;99.90;;;;;;5019609;28;20084;-75
2022/07/07 12:06:51;;;;;;;14.73;2.75;;;16.80;99.90;;;;;;5014054;28;20087;-74
2022/07/07 12:09:17;;;;;;;9.90;2.80;;;16.80;99.90;;;;;;5023132;28;20047;-76
2022/07/07 12:11:43;;;;;;;9.70;3.00;;;16.70;99.90;;;;;;5017941;28;20124;-75
2022/07/07 12:14:12;;;;;;;14.82;3.40;;;16.50;99.90;;;;;;5027205;28;20034;-75
2022/07/07 12:16:46;;;;;;;12.98;3.35;;;16.50;99.90;;;;;;5020235;28;20368;-75
2022/07/07 12:19:12;;;;;;;6.65;2.30;;;16.60;99.90;;;;;;5023350;28;20037;-75
2022/07/07 12:21:46;;;;;;;13.07;2.85;;;16.70;99.90;;;;;;5030822;28;20491;-75
2022/07/07 12:24:36;;;;;;;11.52;2.95;;;16.80;99.90;;;;;;5023714;28;20092;-74
2022/07/07 12:27:01;;;;;;;14.77;3.22;;;16.80;99.90;;;;;;5005343;28;20048;-75
2022/07/07 12:29:27;;;;;;;10.43;2.63;;;16.90;99.90;;;;;;5003453;28;20129;-74
2022/07/07 12:31:54;;;;;;;12.38;2.75;;;16.90;99.90;;;;;;5017908;28;20057;-76
2022/07/07 12:34:42;;;;;;;10.75;2.90;;;17.00;99.90;;;;;;5011313;28;20045;-75
2022/07/07 12:37:41;;;;;;;12.52;2.45;;;17.10;99.90;;;;;;5005073;28;20133;-75
2022/07/07 12:40:10;;;;;;;6.03;2.17;;;17.20;99.90;;;;;;4990944;28;20116;-75
2022/07/07 12:42:36;;;;;;;7.45;2.22;;;17.20;99.90;;;;;;5007438;28;20053;-76
2022/07/07 12:45:09;;;;;;;11.85;2.67;;;17.20;99.90;;;;;;5004028;28;20064;-74
2022/07/07 12:47:44;;;;;;;10.23;2.75;;;17.20;99.90;;;;;;5012938;28;20042;-76
2022/07/07 12:50:10;;;;;;;10.30;2.50;;;17.30;99.90;;;;;;5001311;28;20136;-77